createdAt,value
2022-08-23T00:00:40.640Z,598.2
2022-08-23T00:01:44.215Z,598.1
2022-08-23T00:02:51.835Z,598.1
2022-08-23T00:03:56.390Z,598.5
2022-08-23T00:06:03.879Z,598.2
2022-08-23T00:07:06.076Z,598.7
2022-08-23T00:08:08.281Z,598.6
2022-08-23T00:09:10.781Z,598.5
2022-08-23T00:10:13.279Z,598.2
2022-08-23T00:11:15.740Z,598.5
2022-08-23T00:12:18.391Z,598.6
2022-08-23T00:13:20.572Z,598.5
2022-08-23T00:14:22.767Z,598.3
2022-08-23T00:15:25.241Z,598.5
2022-08-23T00:16:27.443Z,598.4
2022-08-23T00:18:34.925Z,598.5
2022-08-23T00:19:37.129Z,598.5
2022-08-23T00:20:39.610Z,598.6
2022-08-23T00:21:42.086Z,598.6
2022-08-23T00:22:44.279Z,598.3
2022-08-23T00:23:46.767Z,598.2
2022-08-23T00:24:48.969Z,598.1
2022-08-23T00:25:51.437Z,598.2
2022-08-23T00:26:53.091Z,598.4
2022-08-23T00:27:55.557Z,598.4
2022-08-23T00:28:58.182Z,598.2
2022-08-23T00:30:00.372Z,598.5
2022-08-23T00:31:02.846Z,598.2
2022-08-23T00:32:05.356Z,598.3
2022-08-23T00:33:07.838Z,598.3
2022-08-23T00:34:10.341Z,598.2
2022-08-23T00:36:19.291Z,598.3
2022-08-23T00:37:21.461Z,598.2
2022-08-23T00:39:28.663Z,598.4
2022-08-23T00:40:31.155Z,598.3
2022-08-23T00:41:33.643Z,598.2
2022-08-23T00:42:36.096Z,598.2
2022-08-23T00:43:38.298Z,598.6
2022-08-23T00:44:40.760Z,598.7
2022-08-23T00:45:43.263Z,598.4
2022-08-23T00:46:45.172Z,598.4
2022-08-23T00:47:47.645Z,598.4
2022-08-23T00:48:50.135Z,598.7
2022-08-23T00:49:52.609Z,598.7
2022-08-23T00:50:55.075Z,598.4
2022-08-23T00:51:57.280Z,598.3
2022-08-23T00:52:59.482Z,598.6
2022-08-23T00:54:01.992Z,599
2022-08-23T00:55:04.476Z,598.7
2022-08-23T00:56:06.672Z,598.9
2022-08-23T00:57:09.142Z,599.2
2022-08-23T00:58:11.653Z,599
2022-08-23T00:59:13.852Z,598.9
2022-08-23T01:00:16.319Z,599.2
2022-08-23T01:01:20.105Z,599.2
2022-08-23T01:02:22.989Z,598.9
2022-08-23T01:03:25.166Z,598.8
2022-08-23T01:04:27.366Z,598.8
2022-08-23T01:05:29.543Z,598.6
2022-08-23T01:06:32.014Z,598.7
2022-08-23T01:07:35.699Z,598.4
2022-08-23T01:08:38.183Z,598.3
2022-08-23T01:09:40.659Z,598.6
2022-08-23T01:10:43.115Z,598.8
2022-08-23T01:11:45.598Z,598.7
2022-08-23T01:12:48.084Z,598.5
2022-08-23T01:13:50.555Z,598.5
2022-08-23T01:14:53.029Z,598.7
2022-08-23T01:15:55.509Z,598.6
2022-08-23T01:16:57.429Z,598.4
2022-08-23T01:18:00.485Z,598.5
2022-08-23T01:19:03.014Z,598.4
2022-08-23T01:20:06.084Z,598.2
2022-08-23T01:22:13.300Z,598.1
2022-08-23T01:23:15.770Z,598.1
2022-08-23T01:25:23.245Z,598.1
2022-08-23T01:26:25.713Z,597.9
2022-08-23T01:27:27.917Z,598.2
2022-08-23T01:28:30.109Z,598.3
2022-08-23T01:29:32.288Z,598.5
2022-08-23T01:30:34.756Z,598.3
2022-08-23T01:31:37.230Z,598.2
2022-08-23T01:32:39.711Z,598.4
2022-08-23T01:33:42.184Z,598
2022-08-23T01:35:49.653Z,598
2022-08-23T01:36:52.123Z,598.3
2022-08-23T01:37:54.766Z,598.2
2022-08-23T01:38:57.268Z,598.1
2022-08-23T01:40:00.177Z,597.6
2022-08-23T01:41:02.144Z,597.6
2022-08-23T01:43:09.341Z,597
2022-08-23T01:44:11.531Z,596.9
2022-08-23T01:45:14.011Z,596.9
2022-08-23T01:46:16.186Z,596.9
2022-08-23T01:47:18.391Z,596.8
2022-08-23T01:48:20.866Z,596.7
2022-08-23T01:49:23.065Z,596.9
2022-08-23T01:50:25.839Z,597
2022-08-23T01:51:28.326Z,596.8
2022-08-23T01:52:30.799Z,596.5
2022-08-23T01:53:33.002Z,596.7
2022-08-23T01:54:35.474Z,596.9
2022-08-23T01:55:37.971Z,596.8
2022-08-23T01:56:40.905Z,596.7
2022-08-23T01:58:49.073Z,596.9
2022-08-23T01:59:51.253Z,596.9
2022-08-23T02:00:53.732Z,597
2022-08-23T02:01:56.868Z,596.5
2022-08-23T02:02:59.014Z,596.7
2022-08-23T02:05:06.605Z,596.8
2022-08-23T02:06:09.069Z,597
2022-08-23T02:07:11.582Z,596.9
2022-08-23T02:08:14.053Z,596.5
2022-08-23T02:10:21.303Z,596.2
2022-08-23T02:11:23.485Z,596
2022-08-23T02:12:25.412Z,596
2022-08-23T02:13:27.331Z,596
2022-08-23T02:14:30.958Z,596
2022-08-23T02:15:33.429Z,596.3
2022-08-23T02:16:35.914Z,596.4
2022-08-23T02:17:38.382Z,596.2
2022-08-23T02:18:40.860Z,596.3
2022-08-23T02:19:42.218Z,596.3
2022-08-23T02:20:44.122Z,596.1
2022-08-23T02:21:47.625Z,596.3
2022-08-23T02:22:50.106Z,595.9
2022-08-23T02:23:52.581Z,595.7
2022-08-23T02:24:55.063Z,596
2022-08-23T02:25:57.541Z,595.5
2022-08-23T02:28:06.492Z,595.9
2022-08-23T02:29:08.959Z,595.8
2022-08-23T02:30:11.161Z,595.8
2022-08-23T02:31:14.552Z,595.1
2022-08-23T02:32:17.266Z,595.2
2022-08-23T02:33:20.774Z,594.9
2022-08-23T02:35:31.882Z,595.3
2022-08-23T02:36:34.085Z,595.4
2022-08-23T02:37:36.025Z,595.1
2022-08-23T02:38:38.504Z,595.1
2022-08-23T02:39:41.184Z,595.1
2022-08-23T02:40:43.668Z,595
2022-08-23T02:41:45.863Z,595
2022-08-23T02:42:48.325Z,595.1
2022-08-23T02:43:50.803Z,594.4
2022-08-23T02:44:53.319Z,594.6
2022-08-23T02:45:55.797Z,594.5
2022-08-23T02:46:58.260Z,595.1
2022-08-23T02:48:01.713Z,594.5
2022-08-23T02:49:04.288Z,594.7
2022-08-23T02:50:06.759Z,594.2
2022-08-23T02:51:09.229Z,594.1
2022-08-23T02:52:11.411Z,594.3
2022-08-23T02:53:13.061Z,594.2
2022-08-23T02:54:15.541Z,594.6
2022-08-23T02:55:17.462Z,594.2
2022-08-23T02:57:24.941Z,593.8
2022-08-23T02:58:27.777Z,593.9
2022-08-23T02:59:30.251Z,593.6
2022-08-23T03:00:32.724Z,593.6
2022-08-23T03:01:35.204Z,593.2
2022-08-23T03:02:37.790Z,593.4
2022-08-23T03:03:40.316Z,593.3
2022-08-23T03:04:42.781Z,593.1
2022-08-23T03:05:44.988Z,593.4
2022-08-23T03:06:47.189Z,593.3
2022-08-23T03:07:49.385Z,593.2
2022-08-23T03:08:51.873Z,593
2022-08-23T03:09:54.817Z,593.3
2022-08-23T03:10:56.732Z,593
2022-08-23T03:11:59.204Z,593.3
2022-08-23T03:13:01.676Z,593.1
2022-08-23T03:14:04.171Z,592.9
2022-08-23T03:15:08.572Z,593
2022-08-23T03:16:11.026Z,592.7
2022-08-23T03:17:13.229Z,592.5
2022-08-23T03:18:15.442Z,592.6
2022-08-23T03:19:17.635Z,592.5
2022-08-23T03:20:19.830Z,592.3
2022-08-23T03:21:21.871Z,592.3
2022-08-23T03:22:24.346Z,592
2022-08-23T03:23:26.821Z,592.3
2022-08-23T03:24:29.021Z,591.9
2022-08-23T03:25:31.497Z,591.7
2022-08-23T03:26:33.704Z,592
2022-08-23T03:28:41.171Z,592
2022-08-23T03:29:43.377Z,592.2
2022-08-23T03:30:45.867Z,592.2
2022-08-23T03:31:48.330Z,592.2
2022-08-23T03:32:51.142Z,591.8
2022-08-23T03:33:53.609Z,591.7
2022-08-23T03:34:56.097Z,591.2
2022-08-23T03:35:58.010Z,591.3
2022-08-23T03:37:00.513Z,591.2
2022-08-23T03:38:03.821Z,591.1
2022-08-23T03:39:06.297Z,591
2022-08-23T03:40:09.001Z,591.3
2022-08-23T03:41:11.488Z,590.9
2022-08-23T03:42:13.736Z,590.6
2022-08-23T03:43:16.210Z,590.7
2022-08-23T03:44:18.675Z,590.6
2022-08-23T03:45:21.152Z,590.4
2022-08-23T03:46:23.639Z,590.8
2022-08-23T03:47:26.110Z,590.7
2022-08-23T03:48:28.579Z,590.7
2022-08-23T03:49:30.221Z,590.6
2022-08-23T03:50:32.416Z,590.8
2022-08-23T03:51:34.606Z,590.4
2022-08-23T03:52:36.521Z,590.7
2022-08-23T03:53:41.891Z,590.5
2022-08-23T03:54:44.413Z,590.6
2022-08-23T03:55:46.897Z,590.9
2022-08-23T03:56:49.103Z,590.8
2022-08-23T03:57:51.582Z,590.5
2022-08-23T03:58:53.794Z,590.8
2022-08-23T03:59:55.980Z,590.9
2022-08-23T04:00:58.189Z,590.8
2022-08-23T04:02:00.801Z,590.8
2022-08-23T04:03:02.800Z,590.6
2022-08-23T04:04:04.980Z,590.2
2022-08-23T04:05:07.187Z,590.4
2022-08-23T04:06:09.402Z,590.4
2022-08-23T04:07:11.300Z,590.6
2022-08-23T04:08:13.480Z,590.2
2022-08-23T04:09:15.948Z,590
2022-08-23T04:10:18.420Z,590.2
2022-08-23T04:11:20.608Z,590
2022-08-23T04:12:23.083Z,590.4
2022-08-23T04:14:31.268Z,590.3
2022-08-23T04:15:33.475Z,590
2022-08-23T04:16:35.971Z,590
2022-08-23T04:17:38.435Z,590
2022-08-23T04:18:40.628Z,590.1
2022-08-23T04:19:43.350Z,589.9
2022-08-23T04:20:45.270Z,589.7
2022-08-23T04:21:47.745Z,589.9
2022-08-23T04:22:50.478Z,589.9
2022-08-23T04:23:52.656Z,589.9
2022-08-23T04:24:55.588Z,589.9
2022-08-23T04:27:06.379Z,589.4
2022-08-23T04:28:08.862Z,589.5
2022-08-23T04:31:24.353Z,589.4
2022-08-23T04:33:33.273Z,589.5
2022-08-23T04:34:36.081Z,589.1
2022-08-23T04:35:39.819Z,589.5
2022-08-23T04:37:47.293Z,588.9
2022-08-23T04:38:49.765Z,589.2
2022-08-23T04:40:56.967Z,589.1
2022-08-23T04:41:59.169Z,588.9
2022-08-23T04:43:01.678Z,588.6
2022-08-23T04:44:03.873Z,589.1
2022-08-23T04:45:06.078Z,588.7
2022-08-23T04:46:08.275Z,589.1
2022-08-23T04:47:10.750Z,588.9
2022-08-23T04:48:14.173Z,588.8
2022-08-23T04:49:16.647Z,588.9
2022-08-23T04:50:19.116Z,588.7
2022-08-23T04:51:21.315Z,588.8
2022-08-23T04:52:23.784Z,588.9
2022-08-23T04:53:26.257Z,588.7
2022-08-23T04:54:28.727Z,588.9
2022-08-23T04:56:37.576Z,588.9
2022-08-23T04:57:39.767Z,588.9
2022-08-23T04:58:42.280Z,588.6
2022-08-23T04:59:44.767Z,588.3
2022-08-23T05:01:52.246Z,588.6
2022-08-23T05:02:54.713Z,588.3
2022-08-23T05:03:57.112Z,588.1
2022-08-23T05:04:59.594Z,588
2022-08-23T05:06:01.504Z,588
2022-08-23T05:07:03.692Z,587.3
2022-08-23T05:08:06.165Z,587.4
2022-08-23T05:09:08.377Z,587.2
2022-08-23T05:10:10.852Z,587.9
2022-08-23T05:11:13.051Z,587.1
2022-08-23T05:12:15.531Z,587
2022-08-23T05:13:17.436Z,586.7
2022-08-23T05:14:19.646Z,586.8
2022-08-23T05:15:21.845Z,586.3
2022-08-23T05:16:24.324Z,586.8
2022-08-23T05:17:26.803Z,586.7
2022-08-23T05:18:29.287Z,586.6
2022-08-23T05:19:31.773Z,586.4
2022-08-23T05:20:33.682Z,586.3
2022-08-23T05:21:36.169Z,586.1
2022-08-23T05:22:38.635Z,586.2
2022-08-23T05:23:40.993Z,586.1
2022-08-23T05:24:44.373Z,586.1
2022-08-23T05:25:46.848Z,585.8
2022-08-23T05:26:49.322Z,585.9
2022-08-23T05:27:51.531Z,585.7
2022-08-23T05:28:53.725Z,585.8
2022-08-23T05:29:55.941Z,585.5
2022-08-23T05:31:02.620Z,585.5
2022-08-23T05:32:04.819Z,585.5
2022-08-23T05:33:08.856Z,585.2
2022-08-23T05:34:11.344Z,585.3
2022-08-23T05:35:13.815Z,584.9
2022-08-23T05:36:17.426Z,584.9
2022-08-23T05:37:19.921Z,584.7
2022-08-23T05:38:22.678Z,584.5
2022-08-23T05:40:30.147Z,584.2
2022-08-23T05:42:39.807Z,583.9
2022-08-23T05:43:42.280Z,583.8
2022-08-23T05:44:45.337Z,583.7
2022-08-23T05:45:47.761Z,584.2
2022-08-23T05:46:51.533Z,583.7
2022-08-23T05:48:59.035Z,583.5
2022-08-23T05:50:01.508Z,583.6
2022-08-23T05:51:03.991Z,583.4
2022-08-23T05:52:06.457Z,583.3
2022-08-23T05:53:08.401Z,583.5
2022-08-23T05:54:11.715Z,583.4
2022-08-23T05:55:13.927Z,583.6
2022-08-23T05:56:16.124Z,583.1
2022-08-23T05:57:18.089Z,583.1
2022-08-23T05:58:20.576Z,582.7
2022-08-23T05:59:23.056Z,582.7
2022-08-23T06:01:30.998Z,582.2
2022-08-23T06:02:33.494Z,582.2
2022-08-23T06:03:35.989Z,582.4
2022-08-23T06:04:38.458Z,582.2
2022-08-23T06:05:40.699Z,582.3
2022-08-23T06:06:42.899Z,582.3
2022-08-23T06:07:46.749Z,582.6
2022-08-23T06:08:53.701Z,582.1
2022-08-23T06:09:56.170Z,582.1
2022-08-23T06:10:58.641Z,582.4
2022-08-23T06:12:01.124Z,581.8
2022-08-23T06:13:03.593Z,581.9
2022-08-23T06:14:06.811Z,581.5
2022-08-23T06:15:09.083Z,581.8
2022-08-23T06:17:15.724Z,581.6
2022-08-23T06:18:18.205Z,581.6
2022-08-23T06:19:20.434Z,581.6
2022-08-23T06:20:22.914Z,581.6
2022-08-23T06:21:24.850Z,581.5
2022-08-23T06:22:27.335Z,581.4
2022-08-23T06:23:29.826Z,581.7
2022-08-23T06:24:32.305Z,581.7
2022-08-23T06:25:34.524Z,581.8
2022-08-23T06:26:36.704Z,582.1
2022-08-23T06:27:39.189Z,581.5
2022-08-23T06:29:46.678Z,581.8
2022-08-23T06:30:49.216Z,581.9
2022-08-23T06:31:51.477Z,581.8
2022-08-23T06:32:54.359Z,581.3
2022-08-23T06:33:57.272Z,581.5
2022-08-23T06:36:04.511Z,581.7
2022-08-23T06:37:06.429Z,581.1
2022-08-23T06:38:08.639Z,581.5
2022-08-23T06:39:10.841Z,581.9
2022-08-23T06:41:19.989Z,581.7
2022-08-23T06:43:27.196Z,581.6
2022-08-23T06:44:29.680Z,581.6
2022-08-23T06:46:37.281Z,581.6
2022-08-23T06:47:39.229Z,581.8
2022-08-23T06:48:41.177Z,582
2022-08-23T06:50:50.820Z,581.8
2022-08-23T06:51:54.667Z,581.9
2022-08-23T06:52:58.474Z,581.8
2022-08-23T06:55:06.559Z,581.8
2022-08-23T06:56:12.695Z,581.7
2022-08-23T06:57:15.174Z,581.9
2022-08-23T06:58:17.411Z,581.8
2022-08-23T06:59:19.891Z,581.9
2022-08-23T07:00:24.621Z,582.1
2022-08-23T07:02:31.998Z,582.1
2022-08-23T07:04:38.648Z,581.8
2022-08-23T07:05:40.849Z,581.9
2022-08-23T07:06:43.083Z,581.8
2022-08-23T07:07:46.674Z,582.2
2022-08-23T07:08:48.888Z,582.5
2022-08-23T07:09:51.361Z,582.1
2022-08-23T07:10:53.852Z,582.1
2022-08-23T07:11:56.570Z,582.6
2022-08-23T07:12:59.465Z,582
2022-08-23T07:14:02.000Z,582.1
2022-08-23T07:15:03.946Z,582
2022-08-23T07:16:06.922Z,581.9
2022-08-23T07:17:09.450Z,581.9
2022-08-23T07:19:16.950Z,581.9
2022-08-23T07:20:19.453Z,581.6
2022-08-23T07:21:21.934Z,582
2022-08-23T07:22:24.409Z,581.7
2022-08-23T07:23:26.337Z,581.9
2022-08-23T07:25:33.823Z,581.8
2022-08-23T07:26:36.018Z,581.9
2022-08-23T07:27:40.620Z,581.4
2022-08-23T07:28:43.575Z,581.4
2022-08-23T07:29:46.066Z,581.4
2022-08-23T07:30:48.275Z,581.5
2022-08-23T07:31:51.129Z,581.5
2022-08-23T07:32:53.097Z,581.5
2022-08-23T07:35:01.547Z,581.4
2022-08-23T07:36:05.684Z,581
2022-08-23T07:38:12.891Z,581.2
2022-08-23T07:39:15.367Z,580.7
2022-08-23T07:41:22.298Z,580.5
2022-08-23T07:42:26.924Z,580.6
2022-08-23T07:43:29.802Z,580.5
2022-08-23T07:44:38.466Z,580.9
2022-08-23T07:45:42.659Z,580.6
2022-08-23T07:46:45.191Z,580.6
2022-08-23T07:49:57.698Z,580.6
2022-08-23T07:52:05.717Z,579.9
2022-08-23T07:53:07.924Z,580
2022-08-23T07:54:10.394Z,580.1
2022-08-23T07:55:12.864Z,579.6
2022-08-23T07:56:15.347Z,579.5
2022-08-23T07:57:17.524Z,579.3
2022-08-23T07:58:21.559Z,579.7
2022-08-23T07:59:24.033Z,579.4
2022-08-23T08:00:26.234Z,579.3
2022-08-23T08:01:28.705Z,579.5
2022-08-23T08:02:31.454Z,579.1
2022-08-23T08:03:33.397Z,579.1
2022-08-23T08:04:35.895Z,579
2022-08-23T08:05:38.379Z,579.2
2022-08-23T08:06:40.530Z,579
2022-08-23T08:07:43.025Z,579.1
2022-08-23T08:08:45.253Z,579.2
2022-08-23T08:09:47.484Z,578.9
2022-08-23T08:10:49.679Z,578.8
2022-08-23T08:11:52.166Z,579
2022-08-23T08:12:54.384Z,579
2022-08-23T08:13:56.866Z,578.4
2022-08-23T08:14:59.080Z,578.8
2022-08-23T08:16:02.005Z,578.7
2022-08-23T08:17:03.685Z,578.6
2022-08-23T08:18:08.564Z,578.8
2022-08-23T08:19:11.052Z,578.7
2022-08-23T08:20:13.258Z,578.4
2022-08-23T08:21:15.195Z,578.5
2022-08-23T08:22:17.128Z,578.7
2022-08-23T08:23:19.617Z,578.2
2022-08-23T08:24:22.090Z,578.3
2022-08-23T08:25:24.579Z,578.5
2022-08-23T08:26:27.052Z,578.1
2022-08-23T08:27:29.268Z,578.3
2022-08-23T08:28:31.462Z,577.8
2022-08-23T08:29:33.678Z,578
2022-08-23T08:30:35.875Z,578.1
2022-08-23T08:31:38.405Z,577.9
2022-08-23T08:33:45.902Z,577.8
2022-08-23T08:34:48.226Z,577.4
2022-08-23T08:38:03.259Z,577.5
2022-08-23T08:40:13.623Z,578
2022-08-23T08:41:15.860Z,578
2022-08-23T08:42:18.850Z,577.7
2022-08-23T08:43:21.935Z,578.1
2022-08-23T08:44:24.727Z,578.1
2022-08-23T08:45:28.904Z,578
2022-08-23T08:46:32.048Z,577.6
2022-08-23T08:47:34.565Z,578.1
2022-08-23T08:48:37.044Z,578.1
2022-08-23T08:49:39.515Z,578.1
2022-08-23T08:50:41.717Z,577.8
2022-08-23T08:51:43.925Z,578
2022-08-23T08:52:46.150Z,578.1
2022-08-23T08:53:48.633Z,578
2022-08-23T08:55:57.537Z,578.1
2022-08-23T08:57:04.516Z,577.8
2022-08-23T08:58:06.988Z,578.1
2022-08-23T08:59:09.205Z,577.5
2022-08-23T09:00:11.680Z,577.4
2022-08-23T09:01:13.956Z,577.7
2022-08-23T09:03:21.871Z,577.3
2022-08-23T09:04:24.400Z,577.5
2022-08-23T09:05:26.877Z,577.7
2022-08-23T09:06:29.363Z,577.5
2022-08-23T09:07:33.126Z,577.5
2022-08-23T09:08:37.173Z,577.5
2022-08-23T09:09:39.653Z,577.6
2022-08-23T09:10:42.141Z,577.4
2022-08-23T09:11:44.355Z,577.7
2022-08-23T09:12:46.854Z,577.9
2022-08-23T09:13:49.344Z,577.4
2022-08-23T09:14:51.538Z,577.3
2022-08-23T09:15:54.254Z,577.2
2022-08-23T09:16:56.454Z,577.2
2022-08-23T09:17:59.011Z,577.6
2022-08-23T09:19:00.947Z,577.6
2022-08-23T09:20:03.142Z,577.8
2022-08-23T09:21:05.623Z,577.7
2022-08-23T09:22:08.110Z,578.1
2022-08-23T09:23:10.037Z,578.1
2022-08-23T09:24:12.555Z,578
2022-08-23T09:25:15.040Z,578.1
2022-08-23T09:26:17.253Z,578.3
2022-08-23T09:27:21.125Z,578.2
2022-08-23T09:28:23.606Z,578.1
2022-08-23T09:29:26.089Z,578.3
2022-08-23T09:30:28.581Z,578.2
2022-08-23T09:32:35.787Z,578.4
2022-08-23T09:33:37.703Z,578.1
2022-08-23T09:34:40.187Z,578.4
2022-08-23T09:35:42.674Z,578.2
2022-08-23T09:36:44.880Z,578.4
2022-08-23T09:37:47.077Z,578.8
2022-08-23T09:38:49.300Z,578.9
2022-08-23T09:39:52.281Z,578.6
2022-08-23T09:40:54.643Z,578.4
2022-08-23T09:41:57.135Z,578.5
2022-08-23T09:42:59.982Z,578.6
2022-08-23T09:44:02.181Z,578.4
2022-08-23T09:45:04.659Z,578.4
2022-08-23T09:46:07.153Z,578.5
2022-08-23T09:47:09.366Z,578.5
2022-08-23T09:48:11.840Z,578.6
2022-08-23T09:49:14.318Z,578.7
2022-08-23T09:50:16.499Z,578.5
2022-08-23T09:51:19.007Z,578.7
2022-08-23T09:53:26.500Z,578.6
2022-08-23T09:54:28.987Z,578.8
2022-08-23T09:55:31.200Z,578.4
2022-08-23T09:56:33.415Z,578.5
2022-08-23T09:57:35.072Z,578.7
2022-08-23T09:58:37.567Z,578.7
2022-08-23T09:59:40.055Z,578.6
2022-08-23T10:00:42.279Z,578.6
2022-08-23T10:01:44.631Z,578.5
2022-08-23T10:02:46.846Z,578.5
2022-08-23T10:03:49.330Z,578.5
2022-08-23T10:04:51.614Z,579
2022-08-23T10:05:53.843Z,578.8
2022-08-23T10:06:55.478Z,578.7
2022-08-23T10:07:57.707Z,578.9
2022-08-23T10:08:59.639Z,578.7
2022-08-23T10:10:04.223Z,579
2022-08-23T10:12:12.427Z,579
2022-08-23T10:13:15.005Z,578.8
2022-08-23T10:14:19.765Z,578.8
2022-08-23T10:15:23.079Z,579.1
2022-08-23T10:16:25.603Z,579.4
2022-08-23T10:17:28.114Z,579.1
2022-08-23T10:18:30.308Z,579.3
2022-08-23T10:19:32.794Z,579.2
2022-08-23T10:20:35.285Z,579.4
2022-08-23T10:21:39.230Z,579
2022-08-23T10:22:41.466Z,579.1
2022-08-23T10:23:44.000Z,579.5
2022-08-23T10:24:45.945Z,579.2
2022-08-23T10:25:47.884Z,579.1
2022-08-23T10:26:50.111Z,579.1
2022-08-23T10:27:52.636Z,579.1
2022-08-23T10:28:54.588Z,578.9
2022-08-23T10:29:57.076Z,579.3
2022-08-23T10:30:59.984Z,579.7
2022-08-23T10:32:02.278Z,579.3
2022-08-23T10:33:04.817Z,579.4
2022-08-23T10:34:06.759Z,579.7
2022-08-23T10:35:08.714Z,579.6
2022-08-23T10:36:11.190Z,579.4
2022-08-23T10:37:13.691Z,579.5
2022-08-23T10:38:16.173Z,579.8
2022-08-23T10:39:18.386Z,579.7
2022-08-23T10:40:21.049Z,579.5
2022-08-23T10:41:23.630Z,579.5
2022-08-23T10:42:27.951Z,579.8
2022-08-23T10:43:30.459Z,579.9
2022-08-23T10:44:32.931Z,579.7
2022-08-23T10:45:35.150Z,579.8
2022-08-23T10:46:37.735Z,580
2022-08-23T10:47:39.706Z,580.2
2022-08-23T10:48:41.934Z,580.2
2022-08-23T10:49:44.155Z,579.9
2022-08-23T10:51:53.362Z,580
2022-08-23T10:52:55.842Z,580.3
2022-08-23T10:53:58.322Z,580.3
2022-08-23T10:55:00.271Z,580.1
2022-08-23T10:56:02.841Z,580.4
2022-08-23T10:57:05.348Z,580.6
2022-08-23T10:58:07.837Z,580
2022-08-23T10:59:10.321Z,580.3
2022-08-23T11:00:12.754Z,580.5
2022-08-23T11:01:15.485Z,580.3
2022-08-23T11:02:17.905Z,580.5
2022-08-23T11:03:20.148Z,580.3
2022-08-23T11:04:22.643Z,580.2
2022-08-23T11:05:25.121Z,580.3
2022-08-23T11:06:27.338Z,580.2
2022-08-23T11:07:29.547Z,580.2
2022-08-23T11:08:31.778Z,580.2
2022-08-23T11:09:34.348Z,580.5
2022-08-23T11:10:36.831Z,580.2
2022-08-23T11:11:39.336Z,580.7
2022-08-23T11:12:41.282Z,580.6
2022-08-23T11:13:43.758Z,580.6
2022-08-23T11:14:45.994Z,580.2
2022-08-23T11:15:48.736Z,580
2022-08-23T11:16:50.988Z,579.8
2022-08-23T11:17:53.198Z,580.4
2022-08-23T11:18:55.116Z,580.7
2022-08-23T11:19:57.306Z,581.1
2022-08-23T11:20:59.519Z,581
2022-08-23T11:22:02.037Z,580.9
2022-08-23T11:23:04.243Z,581.2
2022-08-23T11:24:06.744Z,580.9
2022-08-23T11:25:09.236Z,580.5
2022-08-23T11:26:11.719Z,580.6
2022-08-23T11:28:19.218Z,580.8
2022-08-23T11:29:21.700Z,580.7
2022-08-23T11:30:23.886Z,580.9
2022-08-23T11:31:25.776Z,581.1
2022-08-23T11:33:32.723Z,581.1
2022-08-23T11:34:34.914Z,581.3
2022-08-23T11:35:37.125Z,581.5
2022-08-23T11:36:44.082Z,581.1
2022-08-23T11:37:46.590Z,581.2
2022-08-23T11:38:48.808Z,581.7
2022-08-23T11:39:51.219Z,581.5
2022-08-23T11:40:53.434Z,581.4
2022-08-23T11:41:55.377Z,581.6
2022-08-23T11:42:57.299Z,581.1
2022-08-23T11:43:59.776Z,581.3
2022-08-23T11:45:01.990Z,581.3
2022-08-23T11:46:04.140Z,580.9
2022-08-23T11:47:06.146Z,581.5
2022-08-23T11:48:08.363Z,581.7
2022-08-23T11:49:10.844Z,581.3
2022-08-23T11:50:13.335Z,581.3
2022-08-23T11:51:15.555Z,581.1
2022-08-23T11:52:18.037Z,580.5
2022-08-23T11:53:20.241Z,580.3
2022-08-23T11:54:22.448Z,580.9
2022-08-23T11:55:26.051Z,580.8
2022-08-23T11:56:28.395Z,580.9
2022-08-23T11:57:30.890Z,580.9
2022-08-23T11:58:33.370Z,581.4
2022-08-23T12:00:42.306Z,581.5
2022-08-23T12:01:44.805Z,581.4
2022-08-23T12:02:48.724Z,580.9
2022-08-23T12:03:52.991Z,581
2022-08-23T12:04:55.540Z,581.2
2022-08-23T12:05:58.025Z,580.9
2022-08-23T12:07:00.266Z,581.6
2022-08-23T12:08:03.923Z,581.6
2022-08-23T12:09:06.277Z,581.7
2022-08-23T12:10:08.549Z,581.6
2022-08-23T12:11:11.062Z,581.5
2022-08-23T12:12:13.549Z,581.6
2022-08-23T12:13:16.032Z,581.5
2022-08-23T12:14:18.218Z,581.5
2022-08-23T12:15:20.157Z,581.6
2022-08-23T12:16:22.824Z,581.4
2022-08-23T12:18:34.210Z,581.6
2022-08-23T12:20:41.653Z,581.5
2022-08-23T12:21:44.150Z,581
2022-08-23T12:22:49.635Z,581.3
2022-08-23T12:23:52.156Z,581.2
2022-08-23T12:24:54.883Z,581.1
2022-08-23T12:25:57.383Z,581.7
2022-08-23T12:26:59.878Z,581.5
2022-08-23T12:28:02.929Z,581.8
2022-08-23T12:29:05.478Z,582
2022-08-23T12:30:07.404Z,581.7
2022-08-23T12:32:14.882Z,581.5
2022-08-23T12:33:17.113Z,581.8
2022-08-23T12:34:19.310Z,581.6
2022-08-23T12:35:21.789Z,581.5
2022-08-23T12:36:23.997Z,581.6
2022-08-23T12:37:26.482Z,581.5
2022-08-23T12:38:28.687Z,581.5
2022-08-23T12:39:31.172Z,581.5
2022-08-23T12:40:33.820Z,580.7
2022-08-23T12:41:37.338Z,581
2022-08-23T12:42:39.255Z,581.6
2022-08-23T12:43:41.735Z,581.5
2022-08-23T12:44:43.375Z,581.5
2022-08-23T12:45:45.323Z,581.6
2022-08-23T12:46:48.033Z,581.5
2022-08-23T12:47:50.556Z,581.4
2022-08-23T12:48:52.768Z,581.9
2022-08-23T12:49:55.251Z,581.5
2022-08-23T12:50:57.456Z,581.9
2022-08-23T12:51:59.653Z,582.3
2022-08-23T12:53:03.197Z,581.9
2022-08-23T12:54:05.224Z,582.1
2022-08-23T12:55:07.459Z,582.4
2022-08-23T12:56:09.660Z,582.4
2022-08-23T12:57:12.461Z,582.3
2022-08-23T12:58:14.372Z,582.1
2022-08-23T12:59:16.869Z,582
2022-08-23T13:00:20.744Z,582.2
2022-08-23T13:01:23.593Z,582.2
2022-08-23T13:02:27.025Z,582.7
2022-08-23T13:03:29.041Z,582.9
2022-08-23T13:04:31.524Z,583.2
2022-08-23T13:05:33.182Z,582.9
2022-08-23T13:06:37.888Z,583
2022-08-23T13:07:40.378Z,583.3
2022-08-23T13:08:42.862Z,583.4
2022-08-23T13:10:50.346Z,583.3
2022-08-23T13:11:52.593Z,583.4
2022-08-23T13:12:56.412Z,582.9
2022-08-23T13:13:58.904Z,583.2
2022-08-23T13:15:00.862Z,583.4
2022-08-23T13:16:03.512Z,583.8
2022-08-23T13:17:05.497Z,583.8
2022-08-23T13:18:07.987Z,584
2022-08-23T13:19:12.291Z,584.2
2022-08-23T13:20:15.560Z,584.2
2022-08-23T13:21:19.052Z,584.6
2022-08-23T13:22:21.638Z,584.5
2022-08-23T13:23:24.128Z,584.8
2022-08-23T13:26:36.625Z,584.5
2022-08-23T13:27:40.324Z,584.3
2022-08-23T13:28:42.554Z,584
2022-08-23T13:29:44.763Z,584.6
2022-08-23T13:30:46.652Z,584.5
2022-08-23T13:31:48.879Z,584.7
2022-08-23T13:32:52.599Z,584.9
2022-08-23T13:33:55.099Z,585
2022-08-23T13:34:57.307Z,585.1
2022-08-23T13:36:02.504Z,585.2
2022-08-23T13:37:05.749Z,585.1
2022-08-23T13:38:08.229Z,585.1
2022-08-23T13:39:10.789Z,585.4
2022-08-23T13:40:13.694Z,585.7
2022-08-23T13:41:15.646Z,585.4
2022-08-23T13:42:19.039Z,585
2022-08-23T13:43:22.518Z,585.3
2022-08-23T13:44:24.998Z,585.2
2022-08-23T13:45:27.243Z,585.3
2022-08-23T13:46:30.293Z,585.6
2022-08-23T13:48:37.258Z,585.1
2022-08-23T13:49:39.756Z,585.4
2022-08-23T13:50:41.968Z,585.7
2022-08-23T13:51:44.160Z,585.4
2022-08-23T13:53:51.100Z,585.6
2022-08-23T13:54:54.886Z,585.4
2022-08-23T13:55:56.811Z,585.4
2022-08-23T13:56:59.299Z,585.9
2022-08-23T13:58:01.488Z,585.4
2022-08-23T13:59:03.702Z,585.9
2022-08-23T14:00:05.915Z,585.9
2022-08-23T14:01:08.558Z,585.4
2022-08-23T14:02:10.756Z,585.7
2022-08-23T14:03:13.015Z,585.3
2022-08-23T14:04:15.222Z,585.5
2022-08-23T14:05:17.673Z,585.9
2022-08-23T14:06:19.928Z,585.9
2022-08-23T14:07:22.409Z,586
2022-08-23T14:08:24.895Z,585.7
2022-08-23T14:09:27.378Z,585.8
2022-08-23T14:10:29.876Z,586.2
2022-08-23T14:11:32.368Z,586.1
2022-08-23T14:12:36.579Z,586.2
2022-08-23T14:13:38.714Z,586.6
2022-08-23T14:14:40.631Z,586.5
2022-08-23T14:16:48.372Z,586.6
2022-08-23T14:17:50.599Z,586.8
2022-08-23T14:21:03.071Z,586.5
2022-08-23T14:22:05.553Z,586.3
2022-08-23T14:24:12.770Z,586.5
2022-08-23T14:25:15.256Z,586.5
2022-08-23T14:26:17.736Z,586.7
2022-08-23T14:27:20.234Z,586.6
2022-08-23T14:28:24.303Z,587.3
2022-08-23T14:29:26.217Z,586.8
2022-08-23T14:31:33.437Z,587
2022-08-23T14:32:35.386Z,587.3
2022-08-23T14:33:37.590Z,586.9
2022-08-23T14:34:40.078Z,586.6
2022-08-23T14:35:42.270Z,586.9
2022-08-23T14:38:54.479Z,586.7
2022-08-23T14:39:57.208Z,586.3
2022-08-23T14:40:59.184Z,587.2
2022-08-23T14:42:01.397Z,586.7
2022-08-23T14:43:04.997Z,587
2022-08-23T14:44:07.217Z,586.9
2022-08-23T14:45:09.450Z,586.6
2022-08-23T14:46:11.749Z,586.3
2022-08-23T14:47:13.960Z,586.6
2022-08-23T14:48:15.904Z,586.8
2022-08-23T14:49:19.216Z,587.1
2022-08-23T14:50:21.705Z,586.8
2022-08-23T14:51:24.192Z,586.5